Terminal Aerodrome Forecast
Issued by NWS Twin Cities, MN

Home | Current Version | Previous Version | Text Only | Print | Product List | Glossary Off
Versions: 1 2 3 4 5 6 7 8 9 10 11 12 13 14 15 16

000
FTUS43 KMPX 200520
TAFEAU
TAF
KEAU 200520Z 2006/2106 16003KT P6SM SKC
     FM201200 18006KT P6SM BKN100
     FM201800 22008KT P6SM BKN100 PROB30 2018/2022 -SHRA
     FM202300 28005KT P6SM SCT100=

USA.gov is the U.S. government's official web portal to all federal, state and local government web resources and services.